Mansfield, Louisiana
Current Conditions -  °F | °C
As of 7:56 AM on Friday 28 Nov 2014 (Local Time) from KSHV Reporting Station
Few Clouds Few Clouds  
Wind Chill: 30°   Ceiling: Unl
Heat Index: 38°   Visibility: 10mi
Dew Point: 34°   Wind: 12mph
Humidity: 86%   Direction: 170°S
Pressure: 30.36"   Gusts: NA
Location:  32.04°N, 93.71°W
Report Text: KSHV 281356Z 17010KT 10SM FEW250 03/01 A3036 RMK AO2 SLP280 T00330011
Loading
Personal Weather Stations






























Interactive Weather Map New forecast layout! Learn more

10-Day Weather Forecast

Advertisements
Track Severe Weather on mobile